sensor_id;sensor_type;location;lat;lon;timestamp;P1;durP1;ratioP1;P2;durP2;ratioP2
47778;SDS011;33538;48.432;11.350;2023-02-18T00:00:12;4.57;;;1.80;;
47778;SDS011;33538;48.432;11.350;2023-02-18T00:02:40;3.67;;;2.00;;
47778;SDS011;33538;48.432;11.350;2023-02-18T00:05:07;1.50;;;1.17;;
47778;SDS011;33538;48.432;11.350;2023-02-18T00:07:36;3.85;;;2.38;;
47778;SDS011;33538;48.432;11.350;2023-02-18T00:10:04;1.70;;;1.55;;
47778;SDS011;33538;48.432;11.350;2023-02-18T00:12:33;4.55;;;1.95;;
47778;SDS011;33538;48.432;11.350;2023-02-18T00:14:59;4.72;;;1.70;;
47778;SDS011;33538;48.432;11.350;2023-02-18T00:17:27;3.35;;;1.55;;
47778;SDS011;33538;48.432;11.350;2023-02-18T00:19:54;3.83;;;1.73;;
47778;SDS011;33538;48.432;11.350;2023-02-18T00:22:21;3.72;;;1.33;;
47778;SDS011;33538;48.432;11.350;2023-02-18T00:24:49;3.50;;;1.90;;
47778;SDS011;33538;48.432;11.350;2023-02-18T00:27:17;2.33;;;1.63;;
47778;SDS011;33538;48.432;11.350;2023-02-18T00:29:43;2.72;;;1.48;;
47778;SDS011;33538;48.432;11.350;2023-02-18T00:32:10;2.38;;;1.42;;
47778;SDS011;33538;48.432;11.350;2023-02-18T00:34:37;1.70;;;1.30;;
47778;SDS011;33538;48.432;11.350;2023-02-18T00:37:04;3.50;;;1.83;;
47778;SDS011;33538;48.432;11.350;2023-02-18T00:39:31;2.30;;;1.35;;
47778;SDS011;33538;48.432;11.350;2023-02-18T00:41:59;4.50;;;1.75;;
47778;SDS011;33538;48.432;11.350;2023-02-18T00:44:26;2.08;;;1.50;;
47778;SDS011;33538;48.432;11.350;2023-02-18T00:46:52;1.85;;;1.10;;
47778;SDS011;33538;48.432;11.350;2023-02-18T00:49:19;3.80;;;1.88;;
47778;SDS011;33538;48.432;11.350;2023-02-18T00:51:46;1.60;;;1.23;;
47778;SDS011;33538;48.432;11.350;2023-02-18T00:54:13;3.22;;;1.30;;
47778;SDS011;33538;48.432;11.350;2023-02-18T00:56:39;2.15;;;1.10;;
47778;SDS011;33538;48.432;11.350;2023-02-18T00:59:07;3.20;;;1.23;;
47778;SDS011;33538;48.432;11.350;2023-02-18T01:01:34;2.95;;;1.48;;
47778;SDS011;33538;48.432;11.350;2023-02-18T01:04:01;1.98;;;1.23;;
47778;SDS011;33538;48.432;11.350;2023-02-18T01:06:28;2.03;;;0.90;;
47778;SDS011;33538;48.432;11.350;2023-02-18T01:08:55;1.17;;;0.98;;
47778;SDS011;33538;48.432;11.350;2023-02-18T01:11:22;3.33;;;1.20;;
47778;SDS011;33538;48.432;11.350;2023-02-18T01:13:49;3.17;;;1.30;;
47778;SDS011;33538;48.432;11.350;2023-02-18T01:16:17;1.35;;;0.70;;
47778;SDS011;33538;48.432;11.350;2023-02-18T01:18:44;2.70;;;1.67;;
47778;SDS011;33538;48.432;11.350;2023-02-18T01:21:12;2.22;;;1.20;;
47778;SDS011;33538;48.432;11.350;2023-02-18T01:23:39;1.38;;;1.08;;
47778;SDS011;33538;48.432;11.350;2023-02-18T01:26:07;1.75;;;1.10;;
47778;SDS011;33538;48.432;11.350;2023-02-18T01:28:35;2.17;;;1.20;;
47778;SDS011;33538;48.432;11.350;2023-02-18T01:31:03;3.40;;;1.10;;
47778;SDS011;33538;48.432;11.350;2023-02-18T01:33:32;1.15;;;1.00;;
47778;SDS011;33538;48.432;11.350;2023-02-18T01:36:00;1.48;;;1.20;;
47778;SDS011;33538;48.432;11.350;2023-02-18T01:38:27;2.55;;;1.00;;
47778;SDS011;33538;48.432;11.350;2023-02-18T01:40:54;1.25;;;1.00;;
47778;SDS011;33538;48.432;11.350;2023-02-18T01:43:21;3.58;;;1.23;;
47778;SDS011;33538;48.432;11.350;2023-02-18T01:45:49;2.88;;;1.30;;
47778;SDS011;33538;48.432;11.350;2023-02-18T01:48:35;3.90;;;1.48;;
47778;SDS011;33538;48.432;11.350;2023-02-18T01:51:08;2.10;;;1.10;;
47778;SDS011;33538;48.432;11.350;2023-02-18T01:53:40;4.53;;;1.00;;
47778;SDS011;33538;48.432;11.350;2023-02-18T01:56:13;2.97;;;1.30;;
47778;SDS011;33538;48.432;11.350;2023-02-18T01:58:45;1.10;;;1.00;;
47778;SDS011;33538;48.432;11.350;2023-02-18T02:01:12;3.20;;;1.30;;
47778;SDS011;33538;48.432;11.350;2023-02-18T02:03:41;1.92;;;1.17;;
47778;SDS011;33538;48.432;11.350;2023-02-18T02:06:10;1.42;;;1.10;;
47778;SDS011;33538;48.432;11.350;2023-02-18T02:08:41;2.40;;;1.43;;
47778;SDS011;33538;48.432;11.350;2023-02-18T02:11:11;1.95;;;1.45;;
47778;SDS011;33538;48.432;11.350;2023-02-18T02:13:55;1.98;;;1.20;;
47778;SDS011;33538;48.432;11.350;2023-02-18T02:16:36;3.55;;;1.60;;
47778;SDS011;33538;48.432;11.350;2023-02-18T02:19:15;1.70;;;1.10;;
47778;SDS011;33538;48.432;11.350;2023-02-18T02:22:16;2.08;;;1.23;;
47778;SDS011;33538;48.432;11.350;2023-02-18T02:25:07;2.08;;;1.42;;
47778;SDS011;33538;48.432;11.350;2023-02-18T02:30:48;3.05;;;1.63;;
47778;SDS011;33538;48.432;11.350;2023-02-18T02:33:39;2.92;;;1.25;;
47778;SDS011;33538;48.432;11.350;2023-02-18T02:36:21;1.90;;;1.30;;
47778;SDS011;33538;48.432;11.350;2023-02-18T02:38:54;1.48;;;1.23;;
47778;SDS011;33538;48.432;11.350;2023-02-18T02:41:35;1.67;;;1.13;;
47778;SDS011;33538;48.432;11.350;2023-02-18T02:44:13;2.30;;;1.45;;
47778;SDS011;33538;48.432;11.350;2023-02-18T02:46:46;1.92;;;1.20;;
47778;SDS011;33538;48.432;11.350;2023-02-18T02:49:19;2.42;;;1.15;;
47778;SDS011;33538;48.432;11.350;2023-02-18T02:51:59;1.33;;;1.23;;
47778;SDS011;33538;48.432;11.350;2023-02-18T02:54:30;2.63;;;1.30;;
47778;SDS011;33538;48.432;11.350;2023-02-18T02:57:05;1.63;;;1.05;;
47778;SDS011;33538;48.432;11.350;2023-02-18T02:59:34;1.98;;;1.25;;
47778;SDS011;33538;48.432;11.350;2023-02-18T03:02:07;1.27;;;0.93;;
47778;SDS011;33538;48.432;11.350;2023-02-18T03:04:53;2.08;;;1.27;;
47778;SDS011;33538;48.432;11.350;2023-02-18T03:07:36;3.88;;;1.00;;
47778;SDS011;33538;48.432;11.350;2023-02-18T03:10:13;2.03;;;1.48;;
47778;SDS011;33538;48.432;11.350;2023-02-18T03:12:52;1.10;;;0.90;;
47778;SDS011;33538;48.432;11.350;2023-02-18T03:15:30;2.30;;;1.40;;
47778;SDS011;33538;48.432;11.350;2023-02-18T03:18:07;1.40;;;1.08;;
47778;SDS011;33538;48.432;11.350;2023-02-18T03:20:42;4.05;;;1.30;;
47778;SDS011;33538;48.432;11.350;2023-02-18T03:23:17;3.05;;;0.90;;
47778;SDS011;33538;48.432;11.350;2023-02-18T03:25:48;1.60;;;1.33;;
47778;SDS011;33538;48.432;11.350;2023-02-18T03:28:16;1.45;;;1.30;;
47778;SDS011;33538;48.432;11.350;2023-02-18T03:30:45;2.50;;;1.27;;
47778;SDS011;33538;48.432;11.350;2023-02-18T03:33:16;2.33;;;1.50;;
47778;SDS011;33538;48.432;11.350;2023-02-18T03:35:47;2.15;;;1.35;;
47778;SDS011;33538;48.432;11.350;2023-02-18T03:38:17;1.42;;;1.15;;
47778;SDS011;33538;48.432;11.350;2023-02-18T03:40:47;2.05;;;1.30;;
47778;SDS011;33538;48.432;11.350;2023-02-18T03:43:14;1.60;;;1.23;;
47778;SDS011;33538;48.432;11.350;2023-02-18T03:45:42;2.50;;;1.50;;
47778;SDS011;33538;48.432;11.350;2023-02-18T03:48:09;1.48;;;1.15;;
47778;SDS011;33538;48.432;11.350;2023-02-18T03:50:36;2.95;;;1.10;;
47778;SDS011;33538;48.432;11.350;2023-02-18T03:53:02;2.10;;;1.30;;
47778;SDS011;33538;48.432;11.350;2023-02-18T03:55:30;1.38;;;1.17;;
47778;SDS011;33538;48.432;11.350;2023-02-18T03:57:57;2.83;;;1.20;;
47778;SDS011;33538;48.432;11.350;2023-02-18T04:00:24;4.03;;;1.25;;
47778;SDS011;33538;48.432;11.350;2023-02-18T04:02:50;1.30;;;1.20;;
47778;SDS011;33538;48.432;11.350;2023-02-18T04:05:17;2.40;;;1.33;;
47778;SDS011;33538;48.432;11.350;2023-02-18T04:07:44;1.42;;;1.10;;
47778;SDS011;33538;48.432;11.350;2023-02-18T04:10:11;1.00;;;0.90;;
47778;SDS011;33538;48.432;11.350;2023-02-18T04:12:39;3.40;;;1.10;;
47778;SDS011;33538;48.432;11.350;2023-02-18T04:15:06;1.50;;;1.17;;
47778;SDS011;33538;48.432;11.350;2023-02-18T04:17:33;1.65;;;0.88;;
47778;SDS011;33538;48.432;11.350;2023-02-18T04:20:00;1.60;;;1.20;;
47778;SDS011;33538;48.432;11.350;2023-02-18T04:22:27;1.40;;;1.10;;
47778;SDS011;33538;48.432;11.350;2023-02-18T04:24:54;1.92;;;1.30;;
47778;SDS011;33538;48.432;11.350;2023-02-18T04:27:20;1.10;;;0.90;;
47778;SDS011;33538;48.432;11.350;2023-02-18T04:29:49;1.25;;;1.08;;
47778;SDS011;33538;48.432;11.350;2023-02-18T04:32:15;1.23;;;1.02;;
47778;SDS011;33538;48.432;11.350;2023-02-18T04:34:42;1.13;;;0.73;;
47778;SDS011;33538;48.432;11.350;2023-02-18T04:37:09;1.30;;;1.10;;
47778;SDS011;33538;48.432;11.350;2023-02-18T04:39:36;1.38;;;0.93;;
47778;SDS011;33538;48.432;11.350;2023-02-18T04:42:02;1.33;;;1.02;;
47778;SDS011;33538;48.432;11.350;2023-02-18T04:44:29;0.88;;;0.82;;
47778;SDS011;33538;48.432;11.350;2023-02-18T04:46:57;3.22;;;1.23;;
47778;SDS011;33538;48.432;11.350;2023-02-18T04:49:24;2.03;;;1.20;;
47778;SDS011;33538;48.432;11.350;2023-02-18T04:51:51;2.05;;;1.05;;
47778;SDS011;33538;48.432;11.350;2023-02-18T04:54:17;1.35;;;0.82;;
47778;SDS011;33538;48.432;11.350;2023-02-18T04:56:44;1.48;;;1.00;;
47778;SDS011;33538;48.432;11.350;2023-02-18T04:59:11;1.95;;;1.10;;
47778;SDS011;33538;48.432;11.350;2023-02-18T05:01:38;1.52;;;1.10;;
47778;SDS011;33538;48.432;11.350;2023-02-18T05:04:06;1.10;;;0.90;;
47778;SDS011;33538;48.432;11.350;2023-02-18T05:06:33;2.55;;;1.35;;
47778;SDS011;33538;48.432;11.350;2023-02-18T05:08:59;1.83;;;1.27;;
47778;SDS011;33538;48.432;11.350;2023-02-18T05:11:26;1.58;;;1.35;;
47778;SDS011;33538;48.432;11.350;2023-02-18T05:13:53;1.35;;;1.10;;
47778;SDS011;33538;48.432;11.350;2023-02-18T05:16:20;3.42;;;1.27;;
47778;SDS011;33538;48.432;11.350;2023-02-18T05:18:46;1.95;;;1.15;;
47778;SDS011;33538;48.432;11.350;2023-02-18T05:21:15;1.15;;;1.00;;
47778;SDS011;33538;48.432;11.350;2023-02-18T05:23:41;2.50;;;1.25;;
47778;SDS011;33538;48.432;11.350;2023-02-18T05:26:08;1.60;;;1.15;;
47778;SDS011;33538;48.432;11.350;2023-02-18T05:28:35;1.13;;;1.02;;
47778;SDS011;33538;48.432;11.350;2023-02-18T05:31:02;1.70;;;1.30;;
47778;SDS011;33538;48.432;11.350;2023-02-18T05:33:29;1.40;;;1.00;;
47778;SDS011;33538;48.432;11.350;2023-02-18T05:35:56;1.23;;;0.90;;
47778;SDS011;33538;48.432;11.350;2023-02-18T05:38:24;1.30;;;1.00;;
47778;SDS011;33538;48.432;11.350;2023-02-18T05:40:51;1.48;;;1.10;;
47778;SDS011;33538;48.432;11.350;2023-02-18T05:43:18;1.83;;;1.15;;
47778;SDS011;33538;48.432;11.350;2023-02-18T05:45:44;1.30;;;1.00;;
47778;SDS011;33538;48.432;11.350;2023-02-18T05:48:11;1.75;;;1.10;;
47778;SDS011;33538;48.432;11.350;2023-02-18T05:50:38;1.00;;;0.80;;
47778;SDS011;33538;48.432;11.350;2023-02-18T05:53:05;1.67;;;1.00;;
47778;SDS011;33538;48.432;11.350;2023-02-18T05:55:33;1.25;;;1.00;;
47778;SDS011;33538;48.432;11.350;2023-02-18T05:58:00;1.70;;;1.08;;
47778;SDS011;33538;48.432;11.350;2023-02-18T06:00:27;1.30;;;0.93;;
47778;SDS011;33538;48.432;11.350;2023-02-18T06:02:53;1.10;;;0.82;;
47778;SDS011;33538;48.432;11.350;2023-02-18T06:05:20;1.45;;;1.10;;
47778;SDS011;33538;48.432;11.350;2023-02-18T06:07:47;1.08;;;0.90;;
47778;SDS011;33538;48.432;11.350;2023-02-18T06:10:14;1.83;;;0.90;;
47778;SDS011;33538;48.432;11.350;2023-02-18T06:12:42;1.65;;;0.95;;
47778;SDS011;33538;48.432;11.350;2023-02-18T06:15:09;0.95;;;0.82;;
47778;SDS011;33538;48.432;11.350;2023-02-18T06:17:36;0.52;;;0.52;;
47778;SDS011;33538;48.432;11.350;2023-02-18T06:20:02;3.08;;;0.90;;
47778;SDS011;33538;48.432;11.350;2023-02-18T06:22:30;1.00;;;0.90;;
47778;SDS011;33538;48.432;11.350;2023-02-18T06:24:57;0.90;;;0.88;;
47778;SDS011;33538;48.432;11.350;2023-02-18T06:27:23;1.17;;;0.80;;
47778;SDS011;33538;48.432;11.350;2023-02-18T06:29:51;1.13;;;0.80;;
47778;SDS011;33538;48.432;11.350;2023-02-18T06:32:18;1.30;;;0.77;;
47778;SDS011;33538;48.432;11.350;2023-02-18T06:34:45;0.85;;;0.80;;
47778;SDS011;33538;48.432;11.350;2023-02-18T06:37:12;2.10;;;0.82;;
47778;SDS011;33538;48.432;11.350;2023-02-18T06:39:39;1.65;;;0.90;;
47778;SDS011;33538;48.432;11.350;2023-02-18T06:42:05;1.00;;;0.80;;
47778;SDS011;33538;48.432;11.350;2023-02-18T06:44:32;1.73;;;1.10;;
47778;SDS011;33538;48.432;11.350;2023-02-18T06:47:04;0.55;;;0.55;;
47778;SDS011;33538;48.432;11.350;2023-02-18T06:49:30;0.50;;;0.50;;
47778;SDS011;33538;48.432;11.350;2023-02-18T06:51:57;0.93;;;0.70;;
47778;SDS011;33538;48.432;11.350;2023-02-18T06:54:24;1.90;;;0.80;;
47778;SDS011;33538;48.432;11.350;2023-02-18T06:56:51;0.80;;;0.80;;
47778;SDS011;33538;48.432;11.350;2023-02-18T06:59:18;1.75;;;0.80;;
47778;SDS011;33538;48.432;11.350;2023-02-18T07:01:44;1.08;;;0.90;;
47778;SDS011;33538;48.432;11.350;2023-02-18T07:04:12;1.13;;;0.68;;
47778;SDS011;33538;48.432;11.350;2023-02-18T07:06:39;0.85;;;0.80;;
47778;SDS011;33538;48.432;11.350;2023-02-18T07:09:06;1.77;;;0.80;;
47778;SDS011;33538;48.432;11.350;2023-02-18T07:11:33;1.30;;;0.90;;
47778;SDS011;33538;48.432;11.350;2023-02-18T07:14:00;3.05;;;0.88;;
47778;SDS011;33538;48.432;11.350;2023-02-18T07:16:27;1.55;;;1.05;;
47778;SDS011;33538;48.432;11.350;2023-02-18T07:18:54;1.00;;;0.90;;
47778;SDS011;33538;48.432;11.350;2023-02-18T07:21:22;2.75;;;1.05;;
47778;SDS011;33538;48.432;11.350;2023-02-18T07:23:48;1.42;;;0.63;;
47778;SDS011;33538;48.432;11.350;2023-02-18T07:26:15;1.25;;;0.90;;
47778;SDS011;33538;48.432;11.350;2023-02-18T07:28:42;1.15;;;0.85;;
47778;SDS011;33538;48.432;11.350;2023-02-18T07:31:09;2.30;;;1.08;;
47778;SDS011;33538;48.432;11.350;2023-02-18T07:33:36;1.00;;;0.90;;
47778;SDS011;33538;48.432;11.350;2023-02-18T07:36:03;1.15;;;0.90;;
47778;SDS011;33538;48.432;11.350;2023-02-18T07:38:31;1.73;;;0.93;;
47778;SDS011;33538;48.432;11.350;2023-02-18T07:40:58;1.35;;;1.08;;
47778;SDS011;33538;48.432;11.350;2023-02-18T07:43:25;1.10;;;0.90;;
47778;SDS011;33538;48.432;11.350;2023-02-18T07:45:52;0.80;;;0.70;;
47778;SDS011;33538;48.432;11.350;2023-02-18T07:48:19;1.23;;;0.88;;
47778;SDS011;33538;48.432;11.350;2023-02-18T07:50:46;1.65;;;1.02;;
47778;SDS011;33538;48.432;11.350;2023-02-18T07:53:13;0.80;;;0.80;;
47778;SDS011;33538;48.432;11.350;2023-02-18T07:55:43;1.13;;;0.70;;
47778;SDS011;33538;48.432;11.350;2023-02-18T07:58:09;0.85;;;0.65;;
47778;SDS011;33538;48.432;11.350;2023-02-18T08:00:36;1.38;;;0.70;;
47778;SDS011;33538;48.432;11.350;2023-02-18T08:03:03;1.58;;;0.80;;
47778;SDS011;33538;48.432;11.350;2023-02-18T08:05:30;1.20;;;0.98;;
47778;SDS011;33538;48.432;11.350;2023-02-18T08:07:57;0.95;;;0.70;;
47778;SDS011;33538;48.432;11.350;2023-02-18T08:10:23;1.65;;;0.90;;
47778;SDS011;33538;48.432;11.350;2023-02-18T08:12:51;1.40;;;0.63;;
47778;SDS011;33538;48.432;11.350;2023-02-18T08:15:18;1.30;;;0.60;;
47778;SDS011;33538;48.432;11.350;2023-02-18T08:17:45;0.90;;;0.90;;
47778;SDS011;33538;48.432;11.350;2023-02-18T08:20:12;1.08;;;0.65;;
47778;SDS011;33538;48.432;11.350;2023-02-18T08:22:38;1.17;;;0.70;;
47778;SDS011;33538;48.432;11.350;2023-02-18T08:25:05;0.93;;;0.73;;
47778;SDS011;33538;48.432;11.350;2023-02-18T08:27:34;0.88;;;0.80;;
47778;SDS011;33538;48.432;11.350;2023-02-18T08:30:02;0.93;;;0.70;;
47778;SDS011;33538;48.432;11.350;2023-02-18T08:32:29;1.05;;;0.73;;
47778;SDS011;33538;48.432;11.350;2023-02-18T08:34:56;0.65;;;0.52;;
47778;SDS011;33538;48.432;11.350;2023-02-18T08:37:23;0.82;;;0.70;;
47778;SDS011;33538;48.432;11.350;2023-02-18T08:39:49;0.60;;;0.55;;
47778;SDS011;33538;48.432;11.350;2023-02-18T08:42:16;0.60;;;0.60;;
47778;SDS011;33538;48.432;11.350;2023-02-18T08:44:43;1.15;;;0.60;;
47778;SDS011;33538;48.432;11.350;2023-02-18T08:47:12;2.28;;;0.90;;
47778;SDS011;33538;48.432;11.350;2023-02-18T08:49:58;1.30;;;0.90;;
47778;SDS011;33538;48.432;11.350;2023-02-18T08:52:25;0.93;;;0.70;;
47778;SDS011;33538;48.432;11.350;2023-02-18T08:54:53;0.57;;;0.57;;
47778;SDS011;33538;48.432;11.350;2023-02-18T08:57:19;1.48;;;0.75;;
47778;SDS011;33538;48.432;11.350;2023-02-18T08:59:46;0.82;;;0.70;;
47778;SDS011;33538;48.432;11.350;2023-02-18T09:02:14;0.90;;;0.68;;
47778;SDS011;33538;48.432;11.350;2023-02-18T09:04:41;1.48;;;0.70;;
47778;SDS011;33538;48.432;11.350;2023-02-18T09:07:08;1.90;;;0.80;;
47778;SDS011;33538;48.432;11.350;2023-02-18T09:09:35;1.08;;;0.80;;
47778;SDS011;33538;48.432;11.350;2023-02-18T09:12:02;0.70;;;0.50;;
47778;SDS011;33538;48.432;11.350;2023-02-18T09:14:29;1.20;;;0.90;;
47778;SDS011;33538;48.432;11.350;2023-02-18T09:16:56;0.88;;;0.70;;
47778;SDS011;33538;48.432;11.350;2023-02-18T09:19:24;1.00;;;0.82;;
47778;SDS011;33538;48.432;11.350;2023-02-18T09:21:51;0.90;;;0.57;;
47778;SDS011;33538;48.432;11.350;2023-02-18T09:24:18;1.20;;;0.73;;
47778;SDS011;33538;48.432;11.350;2023-02-18T09:26:45;0.70;;;0.70;;
47778;SDS011;33538;48.432;11.350;2023-02-18T09:29:11;0.95;;;0.63;;
47778;SDS011;33538;48.432;11.350;2023-02-18T09:31:38;0.60;;;0.50;;
47778;SDS011;33538;48.432;11.350;2023-02-18T09:34:05;0.82;;;0.70;;
47778;SDS011;33538;48.432;11.350;2023-02-18T09:36:33;1.05;;;0.80;;
47778;SDS011;33538;48.432;11.350;2023-02-18T09:39:00;0.63;;;0.60;;
47778;SDS011;33538;48.432;11.350;2023-02-18T09:41:32;0.90;;;0.90;;
47778;SDS011;33538;48.432;11.350;2023-02-18T09:44:04;1.27;;;0.70;;
47778;SDS011;33538;48.432;11.350;2023-02-18T09:46:37;1.10;;;0.75;;
47778;SDS011;33538;48.432;11.350;2023-02-18T09:49:16;0.43;;;0.43;;
47778;SDS011;33538;48.432;11.350;2023-02-18T09:51:46;1.23;;;0.75;;
47778;SDS011;33538;48.432;11.350;2023-02-18T09:54:15;2.03;;;0.80;;
47778;SDS011;33538;48.432;11.350;2023-02-18T09:56:44;0.90;;;0.70;;
47778;SDS011;33538;48.432;11.350;2023-02-18T09:59:13;1.60;;;0.70;;
47778;SDS011;33538;48.432;11.350;2023-02-18T10:01:43;0.75;;;0.60;;
47778;SDS011;33538;48.432;11.350;2023-02-18T10:04:13;1.73;;;1.05;;
47778;SDS011;33538;48.432;11.350;2023-02-18T10:06:43;0.60;;;0.47;;
47778;SDS011;33538;48.432;11.350;2023-02-18T10:09:15;0.80;;;0.60;;
47778;SDS011;33538;48.432;11.350;2023-02-18T10:11:45;0.55;;;0.55;;
47778;SDS011;33538;48.432;11.350;2023-02-18T10:14:14;0.38;;;0.35;;
47778;SDS011;33538;48.432;11.350;2023-02-18T10:16:41;0.60;;;0.50;;
47778;SDS011;33538;48.432;11.350;2023-02-18T10:19:16;0.65;;;0.52;;
47778;SDS011;33538;48.432;11.350;2023-02-18T10:21:49;0.65;;;0.50;;
47778;SDS011;33538;48.432;11.350;2023-02-18T10:24:24;1.33;;;0.82;;
47778;SDS011;33538;48.432;11.350;2023-02-18T10:26:54;0.40;;;0.38;;
47778;SDS011;33538;48.432;11.350;2023-02-18T10:29:22;1.20;;;0.50;;
47778;SDS011;33538;48.432;11.350;2023-02-18T10:31:51;0.43;;;0.43;;
47778;SDS011;33538;48.432;11.350;2023-02-18T10:34:23;0.50;;;0.40;;
47778;SDS011;33538;48.432;11.350;2023-02-18T10:37:03;0.60;;;0.52;;
47778;SDS011;33538;48.432;11.350;2023-02-18T10:39:43;2.05;;;0.47;;
47778;SDS011;33538;48.432;11.350;2023-02-18T10:42:19;1.42;;;0.50;;
47778;SDS011;33538;48.432;11.350;2023-02-18T10:44:56;0.90;;;0.68;;
47778;SDS011;33538;48.432;11.350;2023-02-18T10:47:33;0.60;;;0.52;;
47778;SDS011;33538;48.432;11.350;2023-02-18T10:50:10;1.00;;;0.43;;
47778;SDS011;33538;48.432;11.350;2023-02-18T10:52:43;0.68;;;0.57;;
47778;SDS011;33538;48.432;11.350;2023-02-18T10:55:14;0.70;;;0.52;;
47778;SDS011;33538;48.432;11.350;2023-02-18T10:57:45;0.70;;;0.70;;
47778;SDS011;33538;48.432;11.350;2023-02-18T11:00:15;1.10;;;0.50;;
47778;SDS011;33538;48.432;11.350;2023-02-18T11:02:44;0.75;;;0.40;;
47778;SDS011;33538;48.432;11.350;2023-02-18T11:05:21;1.05;;;0.65;;
47778;SDS011;33538;48.432;11.350;2023-02-18T11:07:50;0.45;;;0.30;;
47778;SDS011;33538;48.432;11.350;2023-02-18T11:10:21;0.57;;;0.57;;
47778;SDS011;33538;48.432;11.350;2023-02-18T11:12:50;0.35;;;0.35;;
47778;SDS011;33538;48.432;11.350;2023-02-18T11:15:21;0.57;;;0.50;;
47778;SDS011;33538;48.432;11.350;2023-02-18T11:17:50;1.13;;;0.68;;
47778;SDS011;33538;48.432;11.350;2023-02-18T11:20:22;0.47;;;0.47;;
47778;SDS011;33538;48.432;11.350;2023-02-18T11:22:51;1.58;;;0.82;;
47778;SDS011;33538;48.432;11.350;2023-02-18T11:25:22;0.55;;;0.55;;
47778;SDS011;33538;48.432;11.350;2023-02-18T11:27:51;1.20;;;0.55;;
47778;SDS011;33538;48.432;11.350;2023-02-18T11:30:21;1.10;;;0.70;;
47778;SDS011;33538;48.432;11.350;2023-02-18T11:32:51;2.28;;;0.80;;
47778;SDS011;33538;48.432;11.350;2023-02-18T11:35:23;0.82;;;0.73;;
47778;SDS011;33538;48.432;11.350;2023-02-18T11:37:52;1.67;;;0.70;;
47778;SDS011;33538;48.432;11.350;2023-02-18T11:40:21;0.65;;;0.65;;
47778;SDS011;33538;48.432;11.350;2023-02-18T11:42:50;0.40;;;0.40;;
47778;SDS011;33538;48.432;11.350;2023-02-18T11:45:27;1.15;;;0.60;;
47778;SDS011;33538;48.432;11.350;2023-02-18T11:47:59;1.20;;;0.80;;
47778;SDS011;33538;48.432;11.350;2023-02-18T11:50:33;0.90;;;0.63;;
47778;SDS011;33538;48.432;11.350;2023-02-18T11:53:00;0.93;;;0.68;;
47778;SDS011;33538;48.432;11.350;2023-02-18T11:55:53;0.40;;;0.40;;
47778;SDS011;33538;48.432;11.350;2023-02-18T11:58:20;4.53;;;0.75;;
47778;SDS011;33538;48.432;11.350;2023-02-18T12:00:48;2.33;;;0.65;;
47778;SDS011;33538;48.432;11.350;2023-02-18T12:03:17;1.10;;;0.70;;
47778;SDS011;33538;48.432;11.350;2023-02-18T12:05:54;2.60;;;0.73;;
47778;SDS011;33538;48.432;11.350;2023-02-18T12:08:24;0.57;;;0.52;;
47778;SDS011;33538;48.432;11.350;2023-02-18T12:10:55;0.98;;;0.75;;
47778;SDS011;33538;48.432;11.350;2023-02-18T12:13:27;0.63;;;0.60;;
47778;SDS011;33538;48.432;11.350;2023-02-18T12:16:00;0.63;;;0.57;;
47778;SDS011;33538;48.432;11.350;2023-02-18T12:18:43;0.93;;;0.70;;
47778;SDS011;33538;48.432;11.350;2023-02-18T12:21:31;0.57;;;0.50;;
47778;SDS011;33538;48.432;11.350;2023-02-18T12:24:09;0.70;;;0.70;;
47778;SDS011;33538;48.432;11.350;2023-02-18T12:26:48;1.05;;;0.73;;
47778;SDS011;33538;48.432;11.350;2023-02-18T12:29:31;0.80;;;0.80;;
47778;SDS011;33538;48.432;11.350;2023-02-18T12:32:11;0.75;;;0.40;;
47778;SDS011;33538;48.432;11.350;2023-02-18T12:34:51;0.68;;;0.57;;
47778;SDS011;33538;48.432;11.350;2023-02-18T12:37:34;0.45;;;0.45;;
47778;SDS011;33538;48.432;11.350;2023-02-18T12:40:18;1.13;;;0.80;;
47778;SDS011;33538;48.432;11.350;2023-02-18T12:42:56;0.77;;;0.60;;
47778;SDS011;33538;48.432;11.350;2023-02-18T12:45:35;0.88;;;0.70;;
47778;SDS011;33538;48.432;11.350;2023-02-18T12:48:14;1.40;;;0.90;;
47778;SDS011;33538;48.432;11.350;2023-02-18T12:51:02;0.40;;;0.40;;
47778;SDS011;33538;48.432;11.350;2023-02-18T12:53:45;0.85;;;0.65;;
47778;SDS011;33538;48.432;11.350;2023-02-18T12:56:27;1.00;;;0.75;;
47778;SDS011;33538;48.432;11.350;2023-02-18T12:59:07;0.65;;;0.55;;
47778;SDS011;33538;48.432;11.350;2023-02-18T13:01:45;0.50;;;0.45;;
47778;SDS011;33538;48.432;11.350;2023-02-18T13:04:31;0.47;;;0.47;;
47778;SDS011;33538;48.432;11.350;2023-02-18T13:07:22;0.50;;;0.50;;
47778;SDS011;33538;48.432;11.350;2023-02-18T13:10:07;1.38;;;0.65;;
47778;SDS011;33538;48.432;11.350;2023-02-18T13:12:47;0.73;;;0.60;;
47778;SDS011;33538;48.432;11.350;2023-02-18T13:15:20;0.63;;;0.63;;
47778;SDS011;33538;48.432;11.350;2023-02-18T13:17:52;0.50;;;0.50;;
47778;SDS011;33538;48.432;11.350;2023-02-18T13:20:22;0.60;;;0.50;;
47778;SDS011;33538;48.432;11.350;2023-02-18T13:22:54;1.38;;;0.70;;
47778;SDS011;33538;48.432;11.350;2023-02-18T13:25:23;1.45;;;0.65;;
47778;SDS011;33538;48.432;11.350;2023-02-18T13:27:53;0.35;;;0.35;;
47778;SDS011;33538;48.432;11.350;2023-02-18T13:30:33;0.88;;;0.60;;
47778;SDS011;33538;48.432;11.350;2023-02-18T13:33:07;1.10;;;0.50;;
47778;SDS011;33538;48.432;11.350;2023-02-18T13:35:40;2.85;;;1.75;;
47778;SDS011;33538;48.432;11.350;2023-02-18T13:38:20;1.33;;;0.47;;
47778;SDS011;33538;48.432;11.350;2023-02-18T13:41:26;0.63;;;0.55;;
47778;SDS011;33538;48.432;11.350;2023-02-18T13:43:53;0.98;;;0.60;;
47778;SDS011;33538;48.432;11.350;2023-02-18T13:46:20;1.30;;;0.75;;
47778;SDS011;33538;48.432;11.350;2023-02-18T13:48:48;3.47;;;0.68;;
47778;SDS011;33538;48.432;11.350;2023-02-18T13:51:26;0.60;;;0.60;;
47778;SDS011;33538;48.432;11.350;2023-02-18T13:53:58;0.70;;;0.50;;
47778;SDS011;33538;48.432;11.350;2023-02-18T13:56:29;2.33;;;0.95;;
47778;SDS011;33538;48.432;11.350;2023-02-18T13:58:59;0.82;;;0.65;;
47778;SDS011;33538;48.432;11.350;2023-02-18T14:01:36;0.70;;;0.60;;
47778;SDS011;33538;48.432;11.350;2023-02-18T14:10:23;0.70;;;0.70;;
47778;SDS011;33538;48.432;11.350;2023-02-18T14:16:03;0.40;;;0.40;;
47778;SDS011;33538;48.432;11.350;2023-02-18T14:18:31;1.27;;;0.90;;
47778;SDS011;33538;48.432;11.350;2023-02-18T14:21:02;0.77;;;0.40;;
47778;SDS011;33538;48.432;11.350;2023-02-18T14:23:54;0.55;;;0.40;;
47778;SDS011;33538;48.432;11.350;2023-02-18T14:26:30;1.20;;;0.77;;
47778;SDS011;33538;48.432;11.350;2023-02-18T14:29:05;0.80;;;0.60;;
47778;SDS011;33538;48.432;11.350;2023-02-18T14:31:46;0.55;;;0.50;;
47778;SDS011;33538;48.432;11.350;2023-02-18T14:34:23;0.65;;;0.65;;
47778;SDS011;33538;48.432;11.350;2023-02-18T14:37:09;0.63;;;0.40;;
47778;SDS011;33538;48.432;11.350;2023-02-18T14:39:51;1.02;;;0.60;;
47778;SDS011;33538;48.432;11.350;2023-02-18T14:42:28;0.77;;;0.52;;
47778;SDS011;33538;48.432;11.350;2023-02-18T14:45:20;0.55;;;0.52;;
47778;SDS011;33538;48.432;11.350;2023-02-18T14:48:13;1.13;;;0.60;;
47778;SDS011;33538;48.432;11.350;2023-02-18T14:50:57;1.45;;;0.85;;
47778;SDS011;33538;48.432;11.350;2023-02-18T14:53:24;0.73;;;0.70;;
47778;SDS011;33538;48.432;11.350;2023-02-18T14:55:52;1.40;;;0.70;;
47778;SDS011;33538;48.432;11.350;2023-02-18T14:58:25;1.08;;;0.70;;
47778;SDS011;33538;48.432;11.350;2023-02-18T15:00:56;1.40;;;0.75;;
47778;SDS011;33538;48.432;11.350;2023-02-18T15:03:25;2.40;;;0.60;;
47778;SDS011;33538;48.432;11.350;2023-02-18T15:05:52;0.57;;;0.57;;